createdAt,value
2023-04-27T00:01:35.897Z,11.43
2023-04-27T00:04:06.894Z,10.03
2023-04-27T00:06:34.498Z,11.88
2023-04-27T00:09:01.140Z,10.80
2023-04-27T00:11:30.702Z,10.93
2023-04-27T00:13:57.227Z,10.50
2023-04-27T00:16:23.772Z,12.33
2023-04-27T00:18:53.081Z,13.52
2023-04-27T00:21:19.805Z,14.10
2023-04-27T00:23:46.326Z,12.73
2023-04-27T00:26:16.156Z,10.20
2023-04-27T00:28:45.174Z,13.70
2023-04-27T00:31:11.666Z,11.70
2023-04-27T00:33:41.115Z,12.93
2023-04-27T00:36:08.559Z,10.23
2023-04-27T00:38:35.035Z,14.57
2023-04-27T00:41:02.986Z,16.83
2023-04-27T00:43:29.731Z,12.45
2023-04-27T00:45:56.358Z,11.63
2023-04-27T00:48:23.219Z,12.45
2023-04-27T00:50:49.857Z,15.90
2023-04-27T00:53:16.813Z,10.37
2023-04-27T00:55:43.271Z,12.05
2023-04-27T00:58:09.944Z,10.02
2023-04-27T01:00:37.149Z,10.73
2023-04-27T01:03:04.667Z,9.52
2023-04-27T01:05:32.977Z,13.20
2023-04-27T01:07:59.464Z,12.57
2023-04-27T01:10:25.936Z,10.13
2023-04-27T01:12:52.496Z,12.38
2023-04-27T01:15:19.014Z,12.63
2023-04-27T01:17:46.536Z,13.23
2023-04-27T01:20:13.163Z,12.00
2023-04-27T01:22:39.847Z,10.75
2023-04-27T01:25:08.014Z,10.77
2023-04-27T01:27:34.476Z,11.18
2023-04-27T01:30:00.957Z,10.50
2023-04-27T01:32:27.534Z,13.07
2023-04-27T01:34:54.169Z,9.48
2023-04-27T01:37:20.657Z,11.50
2023-04-27T01:39:47.317Z,10.85
2023-04-27T01:42:13.802Z,13.37
2023-04-27T01:44:40.410Z,15.00
2023-04-27T01:47:06.942Z,13.65
2023-04-27T01:49:33.403Z,15.13
2023-04-27T01:51:59.910Z,11.57
2023-04-27T01:54:28.705Z,9.83
2023-04-27T01:56:55.573Z,12.05
2023-04-27T01:59:22.096Z,13.32
2023-04-27T02:01:48.581Z,14.07
2023-04-27T02:04:15.445Z,15.40
2023-04-27T02:06:42.255Z,14.33
2023-04-27T02:09:11.311Z,13.45
2023-04-27T02:11:37.971Z,10.43
2023-04-27T02:14:04.682Z,11.40
2023-04-27T02:16:31.206Z,12.75
2023-04-27T02:18:58.972Z,10.57
2023-04-27T02:21:25.551Z,12.32
2023-04-27T02:23:52.035Z,14.15
2023-04-27T02:26:20.522Z,17.10
2023-04-27T02:28:50.205Z,12.60
2023-04-27T02:31:17.147Z,13.40
2023-04-27T02:33:43.672Z,11.93
2023-04-27T02:36:10.262Z,11.10
2023-04-27T02:38:36.825Z,12.05
2023-04-27T02:41:03.403Z,16.92
2023-04-27T02:43:30.002Z,11.50
2023-04-27T02:45:57.795Z,13.57
2023-04-27T02:48:24.339Z,11.40
2023-04-27T02:50:53.748Z,12.50
2023-04-27T02:53:20.246Z,14.80
2023-04-27T02:55:48.450Z,14.47
2023-04-27T02:58:16.667Z,16.80
2023-04-27T03:00:43.684Z,17.27
2023-04-27T03:03:10.411Z,17.52
2023-04-27T03:05:38.084Z,14.43
2023-04-27T03:08:04.837Z,15.47
2023-04-27T03:10:31.835Z,13.18
2023-04-27T03:12:58.296Z,16.10
2023-04-27T03:15:24.791Z,11.98
2023-04-27T03:17:51.384Z,15.60
2023-04-27T03:20:20.939Z,17.23
2023-04-27T03:22:47.531Z,17.23
2023-04-27T03:25:14.521Z,15.52
2023-04-27T03:27:41.094Z,13.63
2023-04-27T03:30:08.184Z,13.55
2023-04-27T03:32:34.885Z,13.67
2023-04-27T03:35:01.517Z,16.92
2023-04-27T03:37:31.292Z,15.85
2023-04-27T03:39:57.868Z,12.73
2023-04-27T03:42:24.590Z,14.98
2023-04-27T03:44:51.097Z,17.37
2023-04-27T03:47:17.600Z,14.82
2023-04-27T03:49:44.085Z,13.55
2023-04-27T03:52:11.139Z,17.98
2023-04-27T03:54:37.649Z,15.35
2023-04-27T03:57:04.713Z,17.10
2023-04-27T03:59:31.360Z,18.08
2023-04-27T04:02:01.431Z,14.52
2023-04-27T04:04:28.264Z,13.98
2023-04-27T04:06:54.831Z,15.27
2023-04-27T04:09:23.704Z,18.17
2023-04-27T04:11:54.361Z,20.50
2023-04-27T04:14:20.882Z,16.52
2023-04-27T04:16:47.388Z,16.20
2023-04-27T04:19:14.298Z,18.55
2023-04-27T04:21:41.116Z,18.73
2023-04-27T04:24:07.726Z,17.92
2023-04-27T04:26:37.526Z,17.27
2023-04-27T04:29:04.034Z,13.43
2023-04-27T04:31:30.679Z,14.07
2023-04-27T04:33:57.271Z,13.93
2023-04-27T04:36:23.950Z,14.73
2023-04-27T04:38:50.402Z,17.77
2023-04-27T04:41:17.020Z,18.92
2023-04-27T04:43:43.508Z,18.27
2023-04-27T04:46:10.117Z,18.07
2023-04-27T04:48:36.836Z,18.33
2023-04-27T04:51:06.395Z,18.38
2023-04-27T04:53:33.294Z,17.17
2023-04-27T04:56:08.767Z,17.25
2023-04-27T04:58:35.572Z,17.83
2023-04-27T05:01:02.032Z,19.58
2023-04-27T05:03:28.800Z,19.08
2023-04-27T05:05:55.369Z,21.90
2023-04-27T05:08:21.859Z,18.52
2023-04-27T05:10:52.589Z,19.43
2023-04-27T05:13:20.161Z,17.20
2023-04-27T05:15:46.818Z,20.88
2023-04-27T05:18:13.304Z,19.50
2023-04-27T05:20:40.100Z,21.08
2023-04-27T05:23:06.628Z,25.10
2023-04-27T05:25:33.726Z,20.70
2023-04-27T05:28:00.465Z,20.38
2023-04-27T05:30:27.330Z,22.70
2023-04-27T05:32:56.134Z,29.42
2023-04-27T05:35:22.758Z,18.83
2023-04-27T05:37:52.422Z,25.13
2023-04-27T05:40:19.117Z,21.33
2023-04-27T05:42:49.636Z,21.60
2023-04-27T05:45:16.145Z,26.40
2023-04-27T05:47:42.736Z,22.93
2023-04-27T05:50:09.812Z,22.00
2023-04-27T05:52:38.239Z,24.23
2023-04-27T05:55:05.675Z,27.17
2023-04-27T05:57:32.157Z,21.27
2023-04-27T05:59:58.696Z,26.67
2023-04-27T06:02:25.684Z,23.90
2023-04-27T06:04:52.343Z,31.08
2023-04-27T06:07:18.956Z,29.15
2023-04-27T06:09:45.407Z,25.35
2023-04-27T06:12:14.257Z,26.73
2023-04-27T06:14:40.825Z,22.55
2023-04-27T06:17:07.378Z,22.17
2023-04-27T06:19:34.240Z,27.23
2023-04-27T06:22:00.851Z,30.27
2023-04-27T06:24:28.627Z,25.03
2023-04-27T06:26:55.179Z,24.67
2023-04-27T06:29:23.785Z,26.98
2023-04-27T06:31:50.354Z,26.25
2023-04-27T06:34:17.015Z,24.23
2023-04-27T06:36:43.570Z,27.33
2023-04-27T06:39:10.064Z,31.10
2023-04-27T06:41:36.747Z,28.55
2023-04-27T06:44:03.232Z,31.15
2023-04-27T06:46:29.788Z,26.10
2023-04-27T06:48:56.348Z,29.10
2023-04-27T06:51:22.821Z,31.35
2023-04-27T06:53:50.112Z,27.63
2023-04-27T06:56:16.602Z,28.23
2023-04-27T06:58:44.231Z,27.83
2023-04-27T07:01:10.751Z,27.80
2023-04-27T07:03:37.478Z,28.27
2023-04-27T07:06:04.335Z,32.08
2023-04-27T07:08:30.906Z,26.95
2023-04-27T07:10:59.849Z,26.90
2023-04-27T07:13:26.342Z,26.27
2023-04-27T07:15:59.285Z,30.45
2023-04-27T07:18:28.177Z,28.95
2023-04-27T07:20:55.751Z,29.30
2023-04-27T07:23:22.412Z,28.45
2023-04-27T07:25:49.589Z,25.63
2023-04-27T07:28:16.341Z,29.83
2023-04-27T07:30:43.150Z,28.77
2023-04-27T07:33:10.069Z,24.60
2023-04-27T07:35:37.176Z,30.60
2023-04-27T07:38:03.798Z,26.43
2023-04-27T07:40:30.852Z,25.17
2023-04-27T07:42:58.323Z,30.83
2023-04-27T07:45:31.906Z,29.65
2023-04-27T07:48:00.210Z,22.45
2023-04-27T07:50:28.535Z,25.33
2023-04-27T07:52:55.282Z,23.95
2023-04-27T07:55:23.770Z,25.20
2023-04-27T07:57:54.134Z,21.20
2023-04-27T08:00:21.995Z,19.17
2023-04-27T08:02:48.834Z,18.70
2023-04-27T08:05:15.917Z,21.83
2023-04-27T08:07:44.773Z,22.65
2023-04-27T08:10:12.121Z,22.88
2023-04-27T08:12:38.715Z,16.83
2023-04-27T08:15:07.797Z,19.47
2023-04-27T08:17:34.790Z,22.33
2023-04-27T08:20:01.265Z,20.63
2023-04-27T08:22:27.836Z,20.13
2023-04-27T08:24:54.332Z,22.30
2023-04-27T08:27:21.012Z,19.27
2023-04-27T08:29:48.603Z,18.73
2023-04-27T08:32:17.954Z,19.20
2023-04-27T08:34:49.700Z,21.15
2023-04-27T08:37:16.368Z,14.15
2023-04-27T08:39:42.915Z,15.60
2023-04-27T08:42:15.392Z,17.05
2023-04-27T08:44:43.075Z,16.65
2023-04-27T08:47:10.096Z,19.23
2023-04-27T08:49:41.400Z,19.42
2023-04-27T08:52:15.719Z,15.27
2023-04-27T08:54:42.459Z,18.10
2023-04-27T08:57:13.870Z,15.93
2023-04-27T08:59:41.112Z,15.00
2023-04-27T09:02:18.486Z,15.73
2023-04-27T09:04:45.068Z,16.47
2023-04-27T09:07:16.775Z,14.27
2023-04-27T09:09:44.800Z,18.02
2023-04-27T09:12:19.535Z,13.85
2023-04-27T09:15:06.315Z,14.35
2023-04-27T09:17:33.836Z,15.33
2023-04-27T09:20:13.555Z,18.85
2023-04-27T09:22:47.795Z,15.75
2023-04-27T09:25:33.536Z,17.10
2023-04-27T09:28:01.810Z,16.67
2023-04-27T09:30:29.330Z,15.43
2023-04-27T09:33:01.194Z,16.42
2023-04-27T09:35:32.849Z,15.48
2023-04-27T09:38:00.696Z,15.35
2023-04-27T09:40:29.751Z,15.95
2023-04-27T09:42:57.961Z,20.47
2023-04-27T09:45:25.662Z,13.38
2023-04-27T09:47:54.604Z,18.05
2023-04-27T09:50:22.032Z,15.48
2023-04-27T09:52:48.941Z,15.27
2023-04-27T09:55:19.831Z,12.60
2023-04-27T09:58:06.486Z,19.35
2023-04-27T10:00:59.896Z,15.75
2023-04-27T10:03:33.249Z,15.80
2023-04-27T10:06:21.223Z,16.27
2023-04-27T10:08:50.054Z,17.60
2023-04-27T10:11:19.037Z,14.68
2023-04-27T10:13:54.368Z,16.85
2023-04-27T10:16:22.113Z,16.02
2023-04-27T10:18:54.214Z,14.32
2023-04-27T10:21:21.480Z,11.40
2023-04-27T10:23:52.375Z,9.93
2023-04-27T10:26:23.360Z,11.40
2023-04-27T10:28:57.986Z,10.32
2023-04-27T10:31:29.226Z,9.23
2023-04-27T10:34:09.476Z,11.93
2023-04-27T10:36:39.406Z,10.13
2023-04-27T10:39:25.611Z,8.30
2023-04-27T10:41:59.756Z,14.05
2023-04-27T10:44:29.300Z,14.20
2023-04-27T10:46:57.840Z,12.00
2023-04-27T10:49:30.216Z,10.93
2023-04-27T10:52:04.690Z,10.55
2023-04-27T10:54:32.017Z,11.73
2023-04-27T10:57:09.533Z,8.43
2023-04-27T10:59:48.358Z,15.20
2023-04-27T11:02:14.866Z,9.43
2023-04-27T11:04:41.906Z,10.10
2023-04-27T11:07:10.207Z,10.98
2023-04-27T11:09:37.948Z,9.85
2023-04-27T11:12:08.743Z,9.00
2023-04-27T11:14:36.886Z,8.73
2023-04-27T11:17:07.100Z,7.95
2023-04-27T11:19:43.964Z,10.35
2023-04-27T11:22:10.465Z,8.82
2023-04-27T11:24:37.268Z,10.60
2023-04-27T11:27:03.988Z,10.77
2023-04-27T11:29:38.654Z,10.63
2023-04-27T11:32:05.797Z,10.20
2023-04-27T11:34:36.949Z,12.75
2023-04-27T11:39:41.464Z,9.35
2023-04-27T11:42:25.775Z,13.95
2023-04-27T11:45:00.148Z,10.15
2023-04-27T11:47:29.215Z,11.60
2023-04-27T11:49:58.109Z,9.23
2023-04-27T11:52:38.255Z,11.55
2023-04-27T11:55:05.502Z,9.18
2023-04-27T11:57:34.017Z,13.30
2023-04-27T12:00:02.392Z,11.07
2023-04-27T12:02:31.764Z,12.43
2023-04-27T12:05:01.710Z,11.88
2023-04-27T12:07:28.388Z,12.90
2023-04-27T12:09:54.993Z,8.38
2023-04-27T12:12:24.945Z,9.02
2023-04-27T12:14:52.148Z,12.33
2023-04-27T12:17:21.284Z,10.55
2023-04-27T12:19:47.794Z,11.63
2023-04-27T12:22:16.860Z,10.93
2023-04-27T12:24:43.367Z,13.10
2023-04-27T12:27:09.893Z,9.47
2023-04-27T12:29:37.071Z,12.75
2023-04-27T12:32:03.789Z,9.32
2023-04-27T12:34:30.333Z,12.25
2023-04-27T12:36:56.804Z,12.38
2023-04-27T12:39:25.385Z,10.93
2023-04-27T12:41:53.392Z,9.35
2023-04-27T12:44:21.322Z,11.73
2023-04-27T12:46:50.793Z,9.60
2023-04-27T12:49:17.486Z,9.25
2023-04-27T12:51:44.366Z,10.67
2023-04-27T12:54:12.989Z,12.40
2023-04-27T12:56:39.850Z,10.38
2023-04-27T12:59:06.362Z,10.32
2023-04-27T13:01:33.269Z,8.82
2023-04-27T13:04:02.770Z,9.17
2023-04-27T13:06:31.255Z,10.13
2023-04-27T13:08:58.552Z,11.25
2023-04-27T13:11:25.905Z,11.75
2023-04-27T13:13:52.475Z,12.68
2023-04-27T13:16:21.625Z,10.27
2023-04-27T13:18:49.839Z,8.88
2023-04-27T13:21:17.744Z,9.57
2023-04-27T13:23:44.231Z,9.70
2023-04-27T13:26:11.765Z,8.95
2023-04-27T13:28:38.362Z,10.30
2023-04-27T13:31:06.020Z,9.18
2023-04-27T13:33:34.518Z,12.85
2023-04-27T13:36:02.413Z,9.52
2023-04-27T13:38:29.041Z,8.65
2023-04-27T13:40:55.821Z,8.37
2023-04-27T13:43:22.339Z,9.27
2023-04-27T13:45:50.761Z,9.82
2023-04-27T13:48:17.573Z,8.43
2023-04-27T13:50:44.096Z,7.60
2023-04-27T13:53:11.856Z,9.60
2023-04-27T13:55:38.585Z,7.75
2023-04-27T13:58:05.149Z,12.43
2023-04-27T14:00:34.605Z,9.10
2023-04-27T14:03:04.272Z,8.35
2023-04-27T14:05:31.960Z,12.17
2023-04-27T14:07:58.423Z,12.13
2023-04-27T14:10:24.981Z,11.05
2023-04-27T14:12:51.552Z,11.75
2023-04-27T14:15:18.065Z,13.98
2023-04-27T14:17:44.616Z,9.43
2023-04-27T14:20:11.310Z,10.02
2023-04-27T14:22:37.909Z,10.43
2023-04-27T14:25:04.771Z,12.60
2023-04-27T14:27:31.513Z,9.27
2023-04-27T14:29:58.002Z,11.33
2023-04-27T14:32:24.600Z,10.10
2023-04-27T14:34:51.763Z,12.15
2023-04-27T14:37:18.253Z,12.10
2023-04-27T14:39:46.265Z,9.75
2023-04-27T14:42:12.751Z,11.50
2023-04-27T14:44:39.359Z,9.45
2023-04-27T14:47:06.783Z,13.05
2023-04-27T14:49:33.337Z,8.90
2023-04-27T14:52:03.240Z,10.20
2023-04-27T14:54:29.912Z,13.27
2023-04-27T14:56:58.558Z,11.63
2023-04-27T14:59:25.379Z,11.15
2023-04-27T15:01:53.762Z,11.20
2023-04-27T15:04:23.646Z,14.63
2023-04-27T15:06:50.813Z,11.50
2023-04-27T15:09:17.433Z,12.90
2023-04-27T15:11:43.922Z,12.60
2023-04-27T15:14:10.418Z,14.90
2023-04-27T15:16:36.917Z,11.40
2023-04-27T15:19:03.790Z,12.00
2023-04-27T15:21:31.412Z,13.48
2023-04-27T15:23:57.918Z,15.70
2023-04-27T15:26:26.763Z,14.15
2023-04-27T15:28:54.565Z,17.63
2023-04-27T15:31:21.350Z,15.93
2023-04-27T15:33:47.925Z,15.65
2023-04-27T15:36:14.544Z,14.52
2023-04-27T15:38:41.102Z,17.77
2023-04-27T15:41:07.566Z,17.77
2023-04-27T15:43:34.125Z,14.40
2023-04-27T15:46:04.846Z,17.80
2023-04-27T15:48:33.681Z,14.98
2023-04-27T15:51:00.353Z,16.73
2023-04-27T15:53:27.047Z,14.50
2023-04-27T15:55:53.913Z,16.53
2023-04-27T15:58:20.478Z,17.42
2023-04-27T16:00:46.987Z,17.27
2023-04-27T16:03:14.340Z,14.30
2023-04-27T16:05:41.278Z,16.35
2023-04-27T16:08:07.788Z,15.23
2023-04-27T16:10:34.323Z,16.15
2023-04-27T16:13:00.766Z,18.50
2023-04-27T16:15:27.260Z,17.88
2023-04-27T16:17:53.792Z,13.73
2023-04-27T16:20:21.156Z,16.63
2023-04-27T16:22:47.632Z,15.27
2023-04-27T16:25:14.118Z,18.65
2023-04-27T16:27:40.666Z,15.32
2023-04-27T16:30:07.862Z,16.50
2023-04-27T16:32:35.518Z,17.13
2023-04-27T16:35:03.123Z,17.45
2023-04-27T16:37:29.789Z,17.85
2023-04-27T16:40:01.597Z,17.00
2023-04-27T16:42:28.662Z,15.52
2023-04-27T16:44:58.099Z,14.43
2023-04-27T16:47:24.614Z,19.75
2023-04-27T16:49:51.325Z,18.92
2023-04-27T16:52:18.038Z,17.80
2023-04-27T16:54:44.506Z,16.15
2023-04-27T16:57:11.114Z,18.17
2023-04-27T16:59:37.694Z,18.38
2023-04-27T17:02:16.327Z,17.50
2023-04-27T17:04:50.106Z,19.95
2023-04-27T17:07:16.831Z,20.48
2023-04-27T17:09:43.329Z,22.20
2023-04-27T17:12:14.827Z,24.67
2023-04-27T17:14:42.286Z,20.20
2023-04-27T17:17:08.752Z,19.70
2023-04-27T17:19:37.898Z,23.98
2023-04-27T17:22:10.733Z,19.53
2023-04-27T17:24:37.278Z,20.10
2023-04-27T17:27:04.573Z,19.38
2023-04-27T17:29:32.056Z,27.65
2023-04-27T17:31:58.599Z,23.15
2023-04-27T17:34:26.206Z,22.53
2023-04-27T17:36:52.785Z,18.45
2023-04-27T17:39:20.603Z,20.70
2023-04-27T17:41:47.085Z,20.33
2023-04-27T17:44:13.641Z,25.05
2023-04-27T17:46:48.735Z,24.77
2023-04-27T17:49:16.906Z,21.65
2023-04-27T17:51:44.211Z,23.13
2023-04-27T17:54:11.395Z,21.92
2023-04-27T17:56:38.694Z,22.20
2023-04-27T17:59:08.126Z,18.00
2023-04-27T18:01:37.944Z,27.23
2023-04-27T18:04:07.200Z,24.98
2023-04-27T18:06:34.125Z,23.80
2023-04-27T18:09:00.677Z,25.02
2023-04-27T18:11:27.318Z,24.63
2023-04-27T18:13:55.004Z,26.00
2023-04-27T18:16:21.519Z,26.67
2023-04-27T18:18:48.003Z,27.80
2023-04-27T18:21:14.493Z,29.88
2023-04-27T18:23:44.677Z,25.83
2023-04-27T18:26:11.757Z,22.20
2023-04-27T18:28:40.228Z,25.30
2023-04-27T18:31:17.547Z,28.48
2023-04-27T18:33:45.003Z,27.60
2023-04-27T18:36:11.606Z,26.20
2023-04-27T18:38:38.236Z,26.75
2023-04-27T18:41:04.805Z,24.38
2023-04-27T18:43:31.333Z,28.27
2023-04-27T18:45:57.846Z,25.73
2023-04-27T18:48:24.395Z,27.33
2023-04-27T18:50:50.933Z,29.67
2023-04-27T18:53:17.393Z,28.73
2023-04-27T18:55:43.874Z,27.17
2023-04-27T18:58:10.372Z,29.80
2023-04-27T19:00:39.952Z,23.67
2023-04-27T19:03:07.036Z,23.25
2023-04-27T19:05:33.835Z,26.73
2023-04-27T19:08:03.226Z,25.63
2023-04-27T19:10:32.128Z,23.80
2023-04-27T19:12:58.750Z,21.90
2023-04-27T19:15:25.393Z,25.67
2023-04-27T19:18:06.575Z,25.38
2023-04-27T19:20:37.041Z,28.02
2023-04-27T19:23:05.070Z,28.63
2023-04-27T19:25:31.681Z,24.17
2023-04-27T19:27:58.725Z,24.85
2023-04-27T19:30:25.397Z,24.90
2023-04-27T19:32:52.016Z,29.92
2023-04-27T19:35:20.368Z,27.30
2023-04-27T19:37:46.937Z,28.97
2023-04-27T19:40:13.642Z,44.78
2023-04-27T19:42:42.524Z,48.13
2023-04-27T19:45:09.651Z,45.00
2023-04-27T19:47:36.222Z,28.60
2023-04-27T19:50:03.199Z,28.20
2023-04-27T19:52:30.637Z,20.17
2023-04-27T19:54:57.682Z,25.55
2023-04-27T19:57:24.153Z,18.73
2023-04-27T19:59:50.689Z,17.85
2023-04-27T20:02:17.318Z,17.90
2023-04-27T20:04:44.204Z,23.10
2023-04-27T20:07:10.861Z,16.35
2023-04-27T20:09:37.393Z,14.43
2023-04-27T20:12:04.173Z,14.15
2023-04-27T20:14:33.571Z,17.27
2023-04-27T20:17:00.264Z,12.85
2023-04-27T20:19:26.902Z,13.63
2023-04-27T20:21:53.569Z,12.75
2023-04-27T20:24:20.067Z,14.30
2023-04-27T20:26:46.683Z,13.13
2023-04-27T20:29:13.152Z,15.85
2023-04-27T20:31:39.713Z,14.15
2023-04-27T20:34:06.278Z,15.95
2023-04-27T20:36:33.224Z,14.93
2023-04-27T20:39:04.996Z,16.87
2023-04-27T20:41:33.708Z,18.27
2023-04-27T20:44:00.442Z,17.40
2023-04-27T20:46:27.271Z,17.42
2023-04-27T20:48:54.075Z,15.80
2023-04-27T20:51:20.630Z,16.73
2023-04-27T20:53:47.235Z,14.20
2023-04-27T20:56:14.055Z,13.77
2023-04-27T20:58:40.624Z,12.30
2023-04-27T21:01:07.318Z,11.85
2023-04-27T21:03:34.058Z,11.10
2023-04-27T21:06:00.782Z,11.80
2023-04-27T21:08:27.950Z,13.73
2023-04-27T21:10:54.554Z,10.38
2023-04-27T21:13:21.358Z,9.80
2023-04-27T21:15:47.889Z,10.27
2023-04-27T21:18:26.616Z,10.13
2023-04-27T21:20:56.514Z,11.00
2023-04-27T21:23:23.061Z,11.00
2023-04-27T21:25:49.580Z,9.90
2023-04-27T21:28:16.138Z,8.77
2023-04-27T21:30:42.913Z,9.13
2023-04-27T21:33:09.452Z,8.85
2023-04-27T21:35:36.228Z,7.57
2023-04-27T21:38:02.781Z,6.88
2023-04-27T21:40:29.310Z,6.90
2023-04-27T21:42:56.379Z,5.88
2023-04-27T21:45:23.265Z,7.07
2023-04-27T21:47:49.862Z,8.68
2023-04-27T21:50:16.836Z,5.63
2023-04-27T21:52:43.393Z,7.07
2023-04-27T21:55:10.036Z,6.13
2023-04-27T21:57:36.856Z,5.85
2023-04-27T22:00:13.111Z,5.72
2023-04-27T22:02:42.552Z,6.70
2023-04-27T22:05:11.536Z,5.93
2023-04-27T22:07:38.266Z,5.20
2023-04-27T22:10:05.763Z,5.35
2023-04-27T22:12:32.546Z,4.70
2023-04-27T22:14:59.201Z,6.05
2023-04-27T22:17:26.107Z,5.00
2023-04-27T22:19:52.832Z,6.13
2023-04-27T22:22:19.304Z,6.13
2023-04-27T22:24:48.595Z,9.32
2023-04-27T22:27:15.232Z,7.57
2023-04-27T22:29:41.699Z,8.77
2023-04-27T22:32:08.446Z,4.97
2023-04-27T22:34:35.015Z,6.43
2023-04-27T22:37:02.349Z,5.13
2023-04-27T22:39:30.445Z,4.38
2023-04-27T22:41:56.913Z,5.27
2023-04-27T22:44:26.453Z,5.05
2023-04-27T22:46:53.036Z,5.22
2023-04-27T22:49:19.552Z,5.13
2023-04-27T22:51:47.092Z,5.53
2023-04-27T22:54:13.939Z,5.57
2023-04-27T22:56:42.768Z,5.25
2023-04-27T22:59:12.141Z,5.22
2023-04-27T23:01:38.722Z,5.70
2023-04-27T23:04:05.404Z,5.65
2023-04-27T23:06:32.251Z,5.23
2023-04-27T23:08:59.287Z,4.63
2023-04-27T23:11:27.769Z,5.78
2023-04-27T23:13:54.649Z,6.50
2023-04-27T23:16:21.660Z,6.85
2023-04-27T23:18:48.374Z,5.13
2023-04-27T23:21:14.825Z,7.40
2023-04-27T23:23:41.316Z,4.57
2023-04-27T23:26:14.777Z,5.93
2023-04-27T23:28:41.393Z,5.28
2023-04-27T23:31:09.436Z,6.47
2023-04-27T23:33:35.879Z,6.25
2023-04-27T23:36:03.149Z,5.45
2023-04-27T23:38:29.728Z,6.10
2023-04-27T23:40:56.211Z,5.55
2023-04-27T23:43:22.816Z,7.10
2023-04-27T23:45:52.767Z,8.70
2023-04-27T23:48:23.075Z,7.25
2023-04-27T23:50:57.914Z,5.03
2023-04-27T23:53:24.388Z,6.45
2023-04-27T23:55:50.852Z,6.33
2023-04-27T23:58:18.608Z,5.47
